Time;durP1;ratioP1;P1;durP2;ratioP2;P2;SDS_P1;SDS_P2;PMS_P1;PMS_P2;Temp;Humidity;BMP_temperature;BMP_pressure;BME280_temperature;BME280_humidity;BME280_pressure;Samples;Min_cycle;Max_cycle;Signal;HPM_P1;HPM_P2
2021/03/16 00:02:28;;;;;;;7.83;4.07;;;;;;;;;;10572570;27;20659;-74
2021/03/16 00:07:29;;;;;;;11.07;5.90;;;;;;;;;;10574551;27;20470;-72
2021/03/16 00:12:31;;;;;;;12.97;6.10;;;;;;;;;;10573394;27;20234;-73
2021/03/16 00:17:33;;;;;;;11.87;6.43;;;;;;;;;;10568267;27;20218;-73
2021/03/16 00:22:35;;;;;;;9.57;5.00;;;;;;;;;;10576450;27;20602;-75
2021/03/16 00:27:49;;;;;;;12.43;5.50;;;;;;;;;;10557017;27;20199;-72
2021/03/16 00:32:51;;;;;;;9.43;4.70;;;;;;;;;;10575048;27;20306;-72
2021/03/16 00:37:53;;;;;;;11.50;5.87;;;;;;;;;;10568245;27;20216;-72
2021/03/16 00:42:58;;;;;;;10.20;5.50;;;;;;;;;;10563574;27;20259;-72
2021/03/16 00:48:00;;;;;;;9.23;5.23;;;;;;;;;;10571568;27;20195;-72
2021/03/16 00:53:02;;;;;;;9.67;5.30;;;;;;;;;;10546044;27;20245;-72
2021/03/16 00:58:10;;;;;;;9.83;5.50;;;;;;;;;;10581407;27;20219;-72
2021/03/16 01:03:12;;;;;;;11.63;6.50;;;;;;;;;;10568326;27;20215;-71
2021/03/16 01:08:14;;;;;;;10.87;5.57;;;;;;;;;;10565407;27;20249;-72
2021/03/16 01:13:16;;;;;;;8.07;3.90;;;;;;;;;;10575239;27;20594;-72
2021/03/16 01:18:18;;;;;;;11.53;6.33;;;;;;;;;;10573701;27;20207;-72
2021/03/16 01:23:20;;;;;;;11.40;6.13;;;;;;;;;;10574594;27;20211;-72
2021/03/16 01:28:36;;;;;;;12.07;5.53;;;;;;;;;;10565302;27;20190;-73
2021/03/16 01:33:39;;;;;;;10.50;5.20;;;;;;;;;;10564358;27;20313;-73
2021/03/16 01:38:42;;;;;;;10.03;4.60;;;;;;;;;;10567414;28;20298;-72
2021/03/16 01:43:43;;;;;;;13.20;5.37;;;;;;;;;;10578389;28;20214;-72
2021/03/16 01:48:46;;;;;;;9.80;5.37;;;;;;;;;;10576624;27;20670;-72
2021/03/16 01:53:47;;;;;;;11.53;6.30;;;;;;;;;;10568307;28;20222;-72
2021/03/16 01:59:00;;;;;;;10.13;5.03;;;;;;;;;;10572053;28;20699;-71
2021/03/16 02:04:03;;;;;;;10.33;5.40;;;;;;;;;;10574210;28;20493;-71
2021/03/16 02:09:09;;;;;;;9.83;3.83;;;;;;;;;;10571726;28;20290;-72
2021/03/16 02:14:14;;;;;;;11.53;5.90;;;;;;;;;;10569187;28;20292;-73
2021/03/16 02:19:23;;;;;;;9.23;4.87;;;;;;;;;;10567230;28;20207;-72
2021/03/16 02:24:37;;;;;;;12.97;6.10;;;;;;;;;;10568468;28;20248;-72
2021/03/16 02:29:42;;;;;;;11.53;5.27;;;;;;;;;;10578758;27;20669;-72
2021/03/16 02:34:46;;;;;;;10.03;4.63;;;;;;;;;;10587661;27;20194;-71
2021/03/16 02:39:49;;;;;;;11.07;4.93;;;;;;;;;;10577166;27;20908;-72
2021/03/16 02:44:51;;;;;;;5.80;3.00;;;;;;;;;;10559348;27;20210;-72
2021/03/16 02:49:54;;;;;;;9.40;4.73;;;;;;;;;;10573827;27;20211;-71
2021/03/16 02:54:56;;;;;;;10.27;5.40;;;;;;;;;;10581862;27;20210;-73
2021/03/16 02:59:59;;;;;;;12.93;5.97;;;;;;;;;;10578780;27;20220;-72
2021/03/16 03:05:02;;;;;;;14.10;6.43;;;;;;;;;;10570410;27;20608;-73
2021/03/16 03:10:04;;;;;;;10.00;4.77;;;;;;;;;;10575169;27;20214;-72
2021/03/16 03:15:08;;;;;;;9.47;5.00;;;;;;;;;;10582773;27;20225;-72
2021/03/16 03:20:10;;;;;;;10.70;5.47;;;;;;;;;;10565735;27;20230;-72
2021/03/16 03:25:17;;;;;;;11.23;4.80;;;;;;;;;;10582905;27;20186;-72
2021/03/16 03:30:22;;;;;;;12.23;5.53;;;;;;;;;;10580699;27;20210;-72
2021/03/16 03:35:24;;;;;;;11.20;5.40;;;;;;;;;;10582626;27;20367;-72
2021/03/16 03:40:26;;;;;;;7.23;3.60;;;;;;;;;;10570055;27;20206;-72
2021/03/16 03:45:29;;;;;;;13.30;4.53;;;;;;;;;;10567285;27;20183;-72
2021/03/16 03:50:31;;;;;;;13.83;6.70;;;;;;;;;;10548431;28;20271;-72
2021/03/16 03:55:34;;;;;;;18.40;6.53;;;;;;;;;;10580153;27;20478;-72
2021/03/16 04:00:36;;;;;;;11.60;4.70;;;;;;;;;;10569863;27;20347;-73
2021/03/16 04:05:38;;;;;;;14.63;7.10;;;;;;;;;;10573428;27;20226;-72
2021/03/16 04:10:40;;;;;;;13.50;6.53;;;;;;;;;;10572846;27;20218;-71
2021/03/16 04:15:42;;;;;;;8.23;3.87;;;;;;;;;;10570854;27;20222;-71
2021/03/16 04:20:44;;;;;;;9.27;5.30;;;;;;;;;;10559342;27;20230;-72
2021/03/16 04:25:46;;;;;;;10.77;5.20;;;;;;;;;;10571918;27;20202;-72
2021/03/16 04:31:01;;;;;;;11.77;4.97;;;;;;;;;;10580157;27;20215;-72
2021/03/16 04:36:06;;;;;;;8.13;3.80;;;;;;;;;;10573753;27;20298;-73
2021/03/16 04:41:07;;;;;;;10.23;3.77;;;;;;;;;;10576609;27;20294;-72
2021/03/16 04:46:10;;;;;;;12.67;5.40;;;;;;;;;;10559069;27;20190;-73
2021/03/16 04:51:12;;;;;;;7.30;3.30;;;;;;;;;;10542107;27;20275;-73
2021/03/16 04:56:14;;;;;;;12.97;5.13;;;;;;;;;;10562751;27;20210;-72
2021/03/16 05:01:17;;;;;;;12.90;5.70;;;;;;;;;;10566019;27;20255;-72
2021/03/16 05:06:22;;;;;;;11.77;5.20;;;;;;;;;;10562734;27;20562;-71
2021/03/16 05:11:24;;;;;;;11.17;5.20;;;;;;;;;;10569253;27;20229;-73
2021/03/16 05:16:26;;;;;;;9.50;4.03;;;;;;;;;;10568850;27;20255;-74
2021/03/16 05:21:28;;;;;;;8.03;3.47;;;;;;;;;;10578313;27;20447;-73
2021/03/16 05:26:30;;;;;;;11.90;4.87;;;;;;;;;;10561360;28;20191;-73
2021/03/16 05:31:37;;;;;;;13.03;5.80;;;;;;;;;;10580265;27;20448;-74
2021/03/16 05:36:39;;;;;;;11.10;4.20;;;;;;;;;;10553380;28;20220;-72
2021/03/16 05:41:41;;;;;;;10.83;4.87;;;;;;;;;;10564140;28;20219;-72
2021/03/16 05:46:44;;;;;;;11.80;4.67;;;;;;;;;;10566510;28;20183;-72
2021/03/16 05:51:46;;;;;;;8.43;3.67;;;;;;;;;;10571619;28;20582;-72
2021/03/16 05:56:48;;;;;;;9.83;3.30;;;;;;;;;;10569072;28;20221;-72
2021/03/16 06:01:59;;;;;;;12.47;5.40;;;;;;;;;;10570627;27;20280;-72
2021/03/16 06:07:00;;;;;;;11.20;4.13;;;;;;;;;;10582924;27;20251;-72
2021/03/16 06:12:02;;;;;;;7.13;2.87;;;;;;;;;;10579652;27;20213;-71
2021/03/16 06:17:08;;;;;;;6.10;2.50;;;;;;;;;;10574416;27;20263;-72
2021/03/16 06:22:09;;;;;;;13.37;5.30;;;;;;;;;;10580600;27;20219;-72
2021/03/16 06:27:20;;;;;;;11.70;5.17;;;;;;;;;;10577450;27;20270;-72
2021/03/16 06:32:22;;;;;;;9.00;4.33;;;;;;;;;;10564158;27;20556;-73
2021/03/16 06:37:24;;;;;;;5.93;2.20;;;;;;;;;;10579932;27;20203;-72
2021/03/16 06:42:27;;;;;;;7.07;2.70;;;;;;;;;;10546320;28;20219;-73
2021/03/16 06:47:29;;;;;;;9.13;4.00;;;;;;;;;;10566318;27;20194;-71
2021/03/16 06:52:31;;;;;;;5.20;2.23;;;;;;;;;;10514532;27;20207;-73
2021/03/16 06:57:32;;;;;;;4.63;2.07;;;;;;;;;;10574462;27;20565;-73
2021/03/16 07:02:44;;;;;;;4.77;2.13;;;;;;;;;;10583439;27;20275;-72
2021/03/16 07:07:46;;;;;;;11.97;4.17;;;;;;;;;;10570728;27;20213;-73
2021/03/16 07:12:48;;;;;;;7.20;3.20;;;;;;;;;;10574560;27;20322;-73
2021/03/16 07:17:50;;;;;;;5.60;1.90;;;;;;;;;;10568876;27;20203;-72
2021/03/16 07:22:52;;;;;;;6.50;3.40;;;;;;;;;;10570129;27;20216;-73
2021/03/16 07:27:54;;;;;;;7.17;3.67;;;;;;;;;;10571973;27;20243;-73
2021/03/16 07:33:07;;;;;;;8.27;3.37;;;;;;;;;;10567307;27;20553;-72
2021/03/16 07:38:09;;;;;;;6.50;2.67;;;;;;;;;;10577756;27;20271;-72
2021/03/16 07:43:10;;;;;;;6.27;2.87;;;;;;;;;;10563435;27;20772;-73
2021/03/16 07:48:17;;;;;;;6.60;2.70;;;;;;;;;;10555139;27;20678;-72
2021/03/16 07:53:25;;;;;;;7.60;3.23;;;;;;;;;;10570970;27;20215;-72
2021/03/16 07:58:27;;;;;;;7.37;2.63;;;;;;;;;;10574037;27;20711;-71
2021/03/16 08:03:33;;;;;;;8.53;3.93;;;;;;;;;;10574930;27;20226;-73
2021/03/16 08:08:38;;;;;;;8.37;3.30;;;;;;;;;;10585703;27;20218;-73
2021/03/16 08:13:39;;;;;;;10.00;3.50;;;;;;;;;;10579263;27;20337;-72
2021/03/16 08:18:42;;;;;;;8.50;2.77;;;;;;;;;;10572611;27;20225;-73
2021/03/16 08:23:44;;;;;;;6.77;3.63;;;;;;;;;;10546175;27;20629;-73
2021/03/16 08:28:47;;;;;;;8.13;3.20;;;;;;;;;;10553221;27;20312;-72
2021/03/16 08:33:56;;;;;;;8.57;3.30;;;;;;;;;;10570319;27;20222;-73
2021/03/16 08:38:58;;;;;;;8.87;3.33;;;;;;;;;;10569546;27;20366;-73
2021/03/16 08:44:00;;;;;;;8.23;3.10;;;;;;;;;;10561864;28;20406;-72
2021/03/16 08:49:03;;;;;;;7.00;2.80;;;;;;;;;;10574013;27;20197;-72
2021/03/16 08:54:06;;;;;;;10.27;3.57;;;;;;;;;;10578753;27;20589;-72
2021/03/16 08:59:07;;;;;;;7.20;3.33;;;;;;;;;;10552810;27;20206;-72
2021/03/16 09:04:26;;;;;;;8.47;3.17;;;;;;;;;;10565993;27;20256;-72
2021/03/16 09:09:30;;;;;;;7.57;2.90;;;;;;;;;;10574885;27;20210;-73
2021/03/16 09:14:32;;;;;;;7.13;2.60;;;;;;;;;;10562580;27;20187;-74
2021/03/16 09:19:35;;;;;;;6.10;2.53;;;;;;;;;;10568503;27;20219;-73
2021/03/16 09:24:36;;;;;;;7.60;3.10;;;;;;;;;;10564076;27;20574;-73
2021/03/16 09:29:38;;;;;;;4.87;2.20;;;;;;;;;;10556609;27;20207;-75
2021/03/16 09:34:50;;;;;;;6.60;2.43;;;;;;;;;;10578120;27;20194;-74
2021/03/16 09:39:54;;;;;;;7.47;2.97;;;;;;;;;;10562683;27;20218;-73
2021/03/16 09:44:58;;;;;;;8.30;3.03;;;;;;;;;;10567469;28;20198;-73
2021/03/16 09:50:14;;;;;;;6.10;2.20;;;;;;;;;;10567749;27;20217;-72
2021/03/16 09:55:16;;;;;;;6.03;2.50;;;;;;;;;;10563093;28;20210;-72
2021/03/16 10:00:19;;;;;;;7.43;2.70;;;;;;;;;;10563675;28;20211;-72
2021/03/16 10:05:22;;;;;;;8.37;2.63;;;;;;;;;;10572401;28;20274;-72
2021/03/16 10:10:24;;;;;;;5.63;1.90;;;;;;;;;;10570063;28;20586;-73
2021/03/16 10:15:28;;;;;;;7.97;2.67;;;;;;;;;;10565558;28;20656;-73
2021/03/16 10:20:31;;;;;;;5.70;2.00;;;;;;;;;;10557851;28;20435;-73
2021/03/16 10:25:34;;;;;;;11.30;3.27;;;;;;;;;;10573598;28;20319;-72
2021/03/16 10:30:44;;;;;;;8.00;2.63;;;;;;;;;;10572859;28;20231;-74
2021/03/16 10:35:47;;;;;;;9.17;2.70;;;;;;;;;;10543931;28;20218;-72
2021/03/16 10:40:49;;;;;;;7.27;2.50;;;;;;;;;;10543933;28;20220;-71
2021/03/16 10:45:53;;;;;;;5.93;1.97;;;;;;;;;;10556259;28;20686;-73
2021/03/16 10:50:55;;;;;;;6.73;2.07;;;;;;;;;;10568286;27;20279;-72
2021/03/16 10:55:58;;;;;;;6.53;2.10;;;;;;;;;;10590892;27;20203;-72
2021/03/16 11:01:00;;;;;;;5.67;1.97;;;;;;;;;;10575335;27;20214;-73
2021/03/16 11:06:06;;;;;;;5.90;2.00;;;;;;;;;;10560360;27;20194;-73
2021/03/16 11:11:09;;;;;;;4.67;1.80;;;;;;;;;;10569971;27;20245;-73
2021/03/16 11:16:10;;;;;;;7.00;2.03;;;;;;;;;;10567077;27;20217;-71
2021/03/16 11:21:14;;;;;;;5.80;1.80;;;;;;;;;;10563914;27;20233;-72
2021/03/16 11:26:15;;;;;;;5.50;2.10;;;;;;;;;;10578074;27;20274;-71
2021/03/16 11:31:17;;;;;;;4.80;1.70;;;;;;;;;;10574844;27;20215;-72
2021/03/16 11:36:29;;;;;;;5.40;1.70;;;;;;;;;;10580675;27;20198;-71
2021/03/16 11:41:30;;;;;;;6.17;1.57;;;;;;;;;;10570284;27;20262;-71
2021/03/16 11:46:32;;;;;;;5.87;1.57;;;;;;;;;;10567860;27;20199;-72
2021/03/16 11:51:34;;;;;;;4.30;1.60;;;;;;;;;;10585413;27;20334;-72
2021/03/16 11:56:36;;;;;;;3.53;1.50;;;;;;;;;;10568005;27;20318;-70
2021/03/16 12:01:38;;;;;;;7.97;1.63;;;;;;;;;;10571614;27;20675;-72
2021/03/16 12:06:51;;;;;;;4.70;1.53;;;;;;;;;;10571041;27;20194;-72
2021/03/16 12:11:53;;;;;;;4.63;1.70;;;;;;;;;;10554560;27;20658;-71
2021/03/16 12:16:54;;;;;;;4.17;1.90;;;;;;;;;;10572341;27;20251;-70
2021/03/16 12:21:57;;;;;;;4.20;1.23;;;;;;;;;;10574670;27;20686;-71
2021/03/16 12:26:59;;;;;;;7.13;2.10;;;;;;;;;;10576436;27;20270;-71
2021/03/16 12:32:01;;;;;;;3.47;1.13;;;;;;;;;;10558150;27;20218;-70
2021/03/16 12:37:14;;;;;;;7.00;1.60;;;;;;;;;;10511969;27;20294;-70
2021/03/16 12:42:16;;;;;;;6.37;1.90;;;;;;;;;;10569816;27;20223;-71
2021/03/16 12:47:18;;;;;;;6.60;2.10;;;;;;;;;;10560563;27;20223;-70
2021/03/16 12:52:21;;;;;;;6.23;1.80;;;;;;;;;;10571604;27;20239;-70
2021/03/16 12:57:25;;;;;;;7.73;2.10;;;;;;;;;;10568816;27;20282;-70
2021/03/16 13:02:26;;;;;;;4.63;1.70;;;;;;;;;;10548676;27;20207;-70
2021/03/16 13:07:39;;;;;;;3.03;1.50;;;;;;;;;;10575168;27;20201;-71
2021/03/16 13:12:41;;;;;;;3.93;1.57;;;;;;;;;;10562611;27;20218;-71
2021/03/16 13:17:42;;;;;;;6.00;2.10;;;;;;;;;;10567690;28;20213;-70
2021/03/16 13:22:45;;;;;;;4.80;2.00;;;;;;;;;;10549307;27;20698;-72
2021/03/16 13:27:47;;;;;;;6.30;1.90;;;;;;;;;;10565252;27;20571;-70
2021/03/16 13:32:49;;;;;;;8.07;1.83;;;;;;;;;;10576224;27;20215;-70
2021/03/16 13:38:08;;;;;;;5.97;1.40;;;;;;;;;;10572799;27;20225;-70
2021/03/16 13:43:09;;;;;;;5.70;1.70;;;;;;;;;;10576759;27;20226;-70
2021/03/16 13:48:11;;;;;;;5.67;2.03;;;;;;;;;;10572522;28;20240;-71
2021/03/16 13:53:14;;;;;;;6.33;1.83;;;;;;;;;;10547750;28;20864;-71
2021/03/16 13:58:16;;;;;;;6.77;2.07;;;;;;;;;;10563532;28;20291;-71
2021/03/16 14:03:17;;;;;;;6.83;1.93;;;;;;;;;;10574248;28;20237;-72
2021/03/16 14:08:35;;;;;;;5.97;2.00;;;;;;;;;;10568902;28;20191;-71
2021/03/16 14:13:37;;;;;;;4.77;1.70;;;;;;;;;;10569095;28;20303;-71
2021/03/16 14:18:46;;;;;;;4.37;1.80;;;;;;;;;;10572140;28;20270;-72
2021/03/16 14:23:49;;;;;;;3.93;1.57;;;;;;;;;;10571241;27;20283;-71
2021/03/16 14:28:51;;;;;;;4.20;1.60;;;;;;;;;;10584084;27;20191;-72
2021/03/16 14:33:53;;;;;;;6.53;1.80;;;;;;;;;;10579699;27;20278;-72
2021/03/16 14:39:11;;;;;;;6.83;2.03;;;;;;;;;;10567531;27;20230;-71
2021/03/16 14:44:13;;;;;;;7.13;2.20;;;;;;;;;;10573095;27;20774;-71
2021/03/16 14:49:14;;;;;;;5.43;1.60;;;;;;;;;;10575594;27;20603;-70
2021/03/16 14:54:17;;;;;;;8.77;2.10;;;;;;;;;;10569995;27;20211;-72
2021/03/16 14:59:19;;;;;;;5.77;2.13;;;;;;;;;;10563979;27;20675;-71
2021/03/16 15:04:20;;;;;;;4.97;1.83;;;;;;;;;;10569465;27;20237;-71
2021/03/16 15:09:32;;;;;;;4.63;1.70;;;;;;;;;;10575782;27;20277;-71
2021/03/16 15:14:33;;;;;;;5.63;2.13;;;;;;;;;;10564302;27;20582;-72
2021/03/16 15:19:36;;;;;;;8.17;1.47;;;;;;;;;;10575195;27;20294;-71
2021/03/16 15:24:38;;;;;;;3.30;1.17;;;;;;;;;;10570809;27;20190;-71
2021/03/16 15:29:40;;;;;;;4.53;1.40;;;;;;;;;;10559576;27;20280;-71
2021/03/16 15:34:41;;;;;;;4.93;1.47;;;;;;;;;;10557722;27;20199;-72
2021/03/16 15:39:47;;;;;;;2.77;1.30;;;;;;;;;;10571694;27;20286;-71
2021/03/16 15:44:49;;;;;;;4.40;1.60;;;;;;;;;;10549304;27;20581;-71
2021/03/16 15:49:50;;;;;;;4.60;1.90;;;;;;;;;;10582630;27;20932;-71
2021/03/16 15:54:53;;;;;;;4.93;2.00;;;;;;;;;;10571587;27;20207;-71
2021/03/16 15:59:54;;;;;;;5.97;2.10;;;;;;;;;;10579238;27;20293;-71
2021/03/16 16:04:56;;;;;;;6.47;2.13;;;;;;;;;;10561373;27;20282;-72
2021/03/16 16:09:59;;;;;;;4.70;2.03;;;;;;;;;;10581459;27;20211;-72
2021/03/16 16:15:00;;;;;;;4.57;2.10;;;;;;;;;;10577072;27;20297;-69
2021/03/16 16:20:02;;;;;;;5.27;2.10;;;;;;;;;;10540303;27;20323;-71
2021/03/16 16:25:17;;;;;;;7.97;2.60;;;;;;;;;;10580434;27;20264;-70
2021/03/16 16:30:20;;;;;;;7.17;2.40;;;;;;;;;;10579078;28;20293;-72
2021/03/16 16:35:22;;;;;;;5.37;2.50;;;;;;;;;;10564732;27;20314;-71
2021/03/16 16:40:24;;;;;;;7.10;2.70;;;;;;;;;;10572388;27;20230;-71
2021/03/16 16:45:26;;;;;;;6.13;2.30;;;;;;;;;;10576724;27;20214;-72
2021/03/16 16:50:28;;;;;;;8.17;3.00;;;;;;;;;;10574177;27;20203;-71
2021/03/16 16:55:30;;;;;;;9.40;2.37;;;;;;;;;;10555842;27;20256;-71
2021/03/16 17:00:32;;;;;;;6.27;1.87;;;;;;;;;;10551826;27;20595;-71
2021/03/16 17:05:34;;;;;;;9.60;3.17;;;;;;;;;;10551244;27;20219;-71
2021/03/16 17:10:36;;;;;;;8.73;2.73;;;;;;;;;;10574026;27;20251;-71
2021/03/16 17:15:39;;;;;;;7.77;2.50;;;;;;;;;;10568069;27;20252;-72
2021/03/16 17:20:40;;;;;;;7.87;2.50;;;;;;;;;;10574566;27;20278;-71
2021/03/16 17:25:43;;;;;;;8.30;2.73;;;;;;;;;;10576230;27;20305;-71
2021/03/16 17:30:44;;;;;;;6.77;2.77;;;;;;;;;;10578667;27;20210;-71
2021/03/16 17:35:46;;;;;;;7.97;3.27;;;;;;;;;;10574158;27;20250;-72
2021/03/16 17:40:49;;;;;;;11.03;3.77;;;;;;;;;;10567981;27;20289;-72
2021/03/16 17:45:50;;;;;;;10.23;3.90;;;;;;;;;;10561462;28;20210;-71
2021/03/16 17:50:52;;;;;;;8.63;3.77;;;;;;;;;;10575631;27;20590;-71
2021/03/16 17:55:54;;;;;;;10.97;3.70;;;;;;;;;;10551416;28;20586;-70
2021/03/16 18:00:56;;;;;;;9.80;3.60;;;;;;;;;;10578857;27;20740;-71
2021/03/16 18:05:58;;;;;;;10.13;3.47;;;;;;;;;;10587917;27;20190;-72
2021/03/16 18:11:01;;;;;;;10.07;4.10;;;;;;;;;;10560308;27;20223;-72
2021/03/16 18:16:03;;;;;;;9.90;4.17;;;;;;;;;;10587748;27;20279;-71
2021/03/16 18:21:05;;;;;;;9.60;3.80;;;;;;;;;;10573353;27;20316;-71
2021/03/16 18:26:07;;;;;;;9.30;4.37;;;;;;;;;;10576255;27;20193;-71
2021/03/16 18:31:09;;;;;;;9.17;3.77;;;;;;;;;;10569999;27;20352;-71
2021/03/16 18:36:11;;;;;;;11.47;4.03;;;;;;;;;;10558039;27;20195;-71
2021/03/16 18:41:14;;;;;;;8.97;4.00;;;;;;;;;;10560184;28;20229;-70
2021/03/16 18:46:15;;;;;;;11.23;4.33;;;;;;;;;;10551666;27;20597;-71
2021/03/16 18:51:17;;;;;;;11.57;5.20;;;;;;;;;;10541745;27;20278;-72
2021/03/16 18:56:20;;;;;;;12.70;5.43;;;;;;;;;;10572691;27;20210;-71
2021/03/16 19:01:21;;;;;;;12.57;4.73;;;;;;;;;;10577909;27;20751;-72
2021/03/16 19:06:23;;;;;;;10.83;4.77;;;;;;;;;;10579655;27;20386;-70
2021/03/16 19:11:26;;;;;;;12.87;5.77;;;;;;;;;;10566488;27;20666;-71
2021/03/16 19:16:27;;;;;;;10.90;5.10;;;;;;;;;;10579103;28;20198;-72
2021/03/16 19:21:29;;;;;;;8.73;4.27;;;;;;;;;;10563603;28;20238;-72
2021/03/16 19:26:31;;;;;;;11.70;4.57;;;;;;;;;;10571037;28;20195;-71
2021/03/16 19:31:37;;;;;;;10.53;4.67;;;;;;;;;;10575060;28;20683;-71
2021/03/16 19:36:39;;;;;;;10.87;4.83;;;;;;;;;;10552691;28;20268;-71
2021/03/16 19:41:41;;;;;;;9.80;4.40;;;;;;;;;;10552406;28;20227;-71
2021/03/16 19:46:43;;;;;;;9.93;4.67;;;;;;;;;;10570630;27;20662;-71
2021/03/16 19:51:45;;;;;;;6.87;2.87;;;;;;;;;;10569357;28;20240;-72
2021/03/16 19:56:48;;;;;;;10.23;3.97;;;;;;;;;;10552415;28;20454;-71
2021/03/16 20:01:50;;;;;;;8.60;3.90;;;;;;;;;;10568371;28;20279;-71
2021/03/16 20:06:51;;;;;;;7.37;3.00;;;;;;;;;;10569756;28;20623;-71
2021/03/16 20:11:54;;;;;;;7.80;3.40;;;;;;;;;;10567230;28;20314;-70
2021/03/16 20:16:56;;;;;;;8.17;3.50;;;;;;;;;;10560633;27;20231;-72
2021/03/16 20:21:58;;;;;;;7.13;2.70;;;;;;;;;;10553348;28;20206;-70
2021/03/16 20:27:00;;;;;;;7.77;3.33;;;;;;;;;;10557429;28;20193;-70
2021/03/16 20:32:02;;;;;;;3.27;1.43;;;;;;;;;;10560641;27;20224;-69
2021/03/16 20:37:06;;;;;;;6.73;2.57;;;;;;;;;;10558138;27;20311;-71
2021/03/16 20:42:09;;;;;;;6.10;2.47;;;;;;;;;;10543210;28;21837;-72
2021/03/16 20:47:11;;;;;;;7.03;3.53;;;;;;;;;;10528481;28;20209;-72
2021/03/16 20:52:13;;;;;;;8.07;3.70;;;;;;;;;;10545714;28;20223;-72
2021/03/16 20:57:15;;;;;;;9.27;3.57;;;;;;;;;;10543216;28;20718;-70
2021/03/16 21:02:17;;;;;;;6.33;2.60;;;;;;;;;;10532768;28;20540;-73
2021/03/16 21:07:18;;;;;;;9.23;3.63;;;;;;;;;;10569899;27;20275;-71
2021/03/16 21:12:21;;;;;;;8.87;3.63;;;;;;;;;;10575644;27;20281;-72
2021/03/16 21:17:23;;;;;;;6.97;3.07;;;;;;;;;;10567392;27;20210;-72
2021/03/16 21:22:25;;;;;;;7.97;3.57;;;;;;;;;;10573214;27;20225;-72
2021/03/16 21:27:27;;;;;;;8.30;4.13;;;;;;;;;;10573710;27;20195;-72
2021/03/16 21:32:29;;;;;;;6.20;2.70;;;;;;;;;;10575038;27;20624;-71
2021/03/16 21:37:31;;;;;;;8.50;3.70;;;;;;;;;;10556983;27;20211;-70
2021/03/16 21:42:33;;;;;;;6.40;3.07;;;;;;;;;;10572798;27;20287;-71
2021/03/16 21:47:35;;;;;;;9.50;4.47;;;;;;;;;;10580749;27;20675;-71
2021/03/16 21:52:37;;;;;;;9.07;3.77;;;;;;;;;;10568112;27;20268;-70
2021/03/16 21:57:49;;;;;;;8.60;4.17;;;;;;;;;;10543028;28;20222;-71
2021/03/16 22:02:51;;;;;;;11.43;4.10;;;;;;;;;;10569482;28;20290;-72
2021/03/16 22:07:53;;;;;;;9.63;4.53;;;;;;;;;;10575816;28;20203;-72
2021/03/16 22:12:55;;;;;;;10.43;4.93;;;;;;;;;;10565836;28;20781;-72
2021/03/16 22:18:04;;;;;;;8.80;4.37;;;;;;;;;;10576552;28;20704;-72
2021/03/16 22:23:06;;;;;;;10.87;4.90;;;;;;;;;;10556020;28;20329;-71
2021/03/16 22:28:09;;;;;;;9.90;4.40;;;;;;;;;;10555578;28;20194;-70
2021/03/16 22:33:10;;;;;;;6.60;3.30;;;;;;;;;;10572932;28;20301;-72
2021/03/16 22:38:12;;;;;;;10.90;4.87;;;;;;;;;;10578832;28;20285;-72
2021/03/16 22:43:14;;;;;;;12.87;5.40;;;;;;;;;;10572150;28;20232;-71
2021/03/16 22:48:18;;;;;;;11.90;4.90;;;;;;;;;;10577283;27;20197;-72
2021/03/16 22:53:20;;;;;;;13.70;5.60;;;;;;;;;;10577206;27;20317;-70
2021/03/16 22:58:23;;;;;;;11.23;5.13;;;;;;;;;;10559704;27;20451;-70
2021/03/16 23:03:24;;;;;;;9.97;4.40;;;;;;;;;;10568785;27;20264;-71
2021/03/16 23:08:26;;;;;;;6.93;2.90;;;;;;;;;;10579759;27;20270;-69
2021/03/16 23:13:28;;;;;;;9.20;4.00;;;;;;;;;;10576148;27;20584;-71
2021/03/16 23:18:30;;;;;;;11.63;4.70;;;;;;;;;;10541657;28;20643;-71
2021/03/16 23:23:32;;;;;;;10.10;3.87;;;;;;;;;;10575296;27;20222;-72
2021/03/16 23:28:35;;;;;;;11.10;4.73;;;;;;;;;;10576236;27;20236;-71
2021/03/16 23:33:37;;;;;;;9.13;4.27;;;;;;;;;;10579850;27;20217;-71
2021/03/16 23:38:38;;;;;;;11.33;4.90;;;;;;;;;;10580916;27;20214;-70
2021/03/16 23:43:41;;;;;;;10.60;5.50;;;;;;;;;;10560725;27;20227;-71
2021/03/16 23:48:44;;;;;;;6.27;2.40;;;;;;;;;;10575623;27;20200;-71
2021/03/16 23:53:45;;;;;;;4.23;1.90;;;;;;;;;;10570998;27;20215;-72
2021/03/16 23:58:52;;;;;;;5.40;2.30;;;;;;;;;;10577608;27;20217;-70
